Time;durP1;ratioP1;P1;durP2;ratioP2;P2;SDS_P1;SDS_P2;PMS_P1;PMS_P2;Temp;Humidity;BMP_temperature;BMP_pressure;BME280_temperature;BME280_humidity;BME280_pressure;Samples;Min_cycle;Max_cycle;Signal;HPM_P1;HPM_P2
2022/02/08 00:01:50;;;;;;;15.57;4.20;;;6.80;99.90;;;;;;5080266;28;20233;-57
2022/02/08 00:04:17;;;;;;;15.27;4.23;;;6.80;99.90;;;;;;5059131;28;20738;-57
2022/02/08 00:06:46;;;;;;;15.87;4.20;;;6.80;99.90;;;;;;5061949;28;20660;-57
2022/02/08 00:09:15;;;;;;;15.53;4.27;;;6.80;99.90;;;;;;5075712;28;20228;-56
2022/02/08 00:11:42;;;;;;;15.90;4.83;;;6.70;99.90;;;;;;5080262;28;20285;-57
2022/02/08 00:14:09;;;;;;;13.27;4.77;;;6.80;99.90;;;;;;5079623;28;20285;-56
2022/02/08 00:16:36;;;;;;;14.87;4.80;;;6.80;99.90;;;;;;5074472;28;20204;-57
2022/02/08 00:19:04;;;;;;;13.07;5.20;;;6.70;99.90;;;;;;5074413;28;20225;-55
2022/02/08 00:21:31;;;;;;;12.03;4.93;;;6.70;99.90;;;;;;5076183;28;20653;-56
2022/02/08 00:23:58;;;;;;;10.50;5.33;;;6.70;99.90;;;;;;5075650;28;20223;-55
2022/02/08 00:26:25;;;;;;;16.93;5.80;;;6.70;99.90;;;;;;5069974;28;20706;-57
2022/02/08 00:28:52;;;;;;;19.03;6.30;;;6.60;99.90;;;;;;5074321;28;20315;-57
2022/02/08 00:31:19;;;;;;;19.87;6.77;;;6.50;99.90;;;;;;5073625;28;20683;-59
2022/02/08 00:33:46;;;;;;;14.20;6.73;;;6.50;99.90;;;;;;5060730;28;20201;-56
2022/02/08 00:36:13;;;;;;;21.13;7.40;;;6.50;99.90;;;;;;5075336;28;20196;-56
2022/02/08 00:38:40;;;;;;;19.50;7.57;;;6.60;99.90;;;;;;5054830;28;20223;-55
2022/02/08 00:41:07;;;;;;;20.37;7.60;;;6.60;99.90;;;;;;5077141;28;20679;-57
2022/02/08 00:44:11;;;;;;;18.67;8.27;;;6.60;99.90;;;;;;5071366;28;20325;-57
2022/02/08 00:49:00;;;;;;;22.07;9.57;;;6.60;99.90;;;;;;5074611;28;20196;-57
2022/02/08 00:51:30;;;;;;;16.93;8.77;;;6.60;99.90;;;;;;5073442;28;21077;-56
2022/02/08 00:53:56;;;;;;;20.53;10.03;;;6.60;99.90;;;;;;5080436;28;20596;-56
2022/02/08 00:56:24;;;;;;;17.50;10.13;;;6.60;99.90;;;;;;5082143;28;20583;-55
2022/02/08 00:58:51;;;;;;;20.93;9.70;;;6.60;99.90;;;;;;5081654;28;20232;-56
2022/02/08 01:01:17;;;;;;;17.47;10.17;;;6.60;99.90;;;;;;5064953;28;20648;-57
2022/02/08 01:03:44;;;;;;;15.33;10.37;;;6.60;99.90;;;;;;5078371;28;20661;-55
2022/02/08 01:06:11;;;;;;;26.77;11.93;;;6.70;99.90;;;;;;5063113;28;20713;-57
2022/02/08 01:08:39;;;;;;;22.93;12.00;;;6.70;99.90;;;;;;5077187;28;20206;-55
2022/02/08 01:11:10;;;;;;;25.33;12.43;;;6.70;99.90;;;;;;5076830;28;20232;-55
2022/02/08 01:13:39;;;;;;;25.10;12.93;;;6.80;99.90;;;;;;5080879;28;20202;-56
2022/02/08 01:16:06;;;;;;;28.27;12.63;;;6.80;99.90;;;;;;5077663;28;20581;-55
2022/02/08 01:18:38;;;;;;;28.07;14.57;;;6.80;99.90;;;;;;5060392;28;20577;-56
2022/02/08 01:21:05;;;;;;;24.07;14.30;;;6.80;99.90;;;;;;5074235;28;20686;-56
2022/02/08 01:23:32;;;;;;;30.03;14.07;;;6.80;99.90;;;;;;5080345;28;20579;-56
2022/02/08 01:26:06;;;;;;;27.77;14.13;;;6.80;99.90;;;;;;5080142;28;20590;-58
2022/02/08 01:28:50;;;;;;;25.63;13.73;;;6.80;99.90;;;;;;5078946;28;20191;-57
2022/02/08 01:31:19;;;;;;;26.90;15.00;;;6.90;99.90;;;;;;5075452;28;20503;-55
2022/02/08 01:37:24;;;;;;;32.00;16.67;;;6.90;99.90;;;;;;5080416;28;20551;-56
2022/02/08 01:39:31;;;;;;;28.87;15.97;;;6.90;99.90;;;;;;5057560;28;20246;-55
2022/02/08 01:44:41;;;;;;;27.60;16.30;;;7.00;99.90;;;;;;5075545;28;20569;-55
2022/02/08 01:47:27;;;;;;;28.80;16.13;;;7.00;99.90;;;;;;5078703;28;20206;-58
2022/02/08 01:50:00;;;;;;;31.47;16.53;;;7.00;99.90;;;;;;5073560;28;20965;-56
2022/02/08 01:52:27;;;;;;;30.10;16.47;;;7.10;99.90;;;;;;5080054;28;20236;-55
2022/02/08 01:54:55;;;;;;;30.67;17.50;;;7.10;99.90;;;;;;5065807;28;20303;-56
2022/02/08 01:57:23;;;;;;;30.90;18.13;;;7.10;99.90;;;;;;5078615;28;20218;-56
2022/02/08 01:59:52;;;;;;;30.60;17.10;;;7.20;99.90;;;;;;5074214;28;20209;-57
2022/02/08 02:02:19;;;;;;;28.43;16.73;;;7.20;99.90;;;;;;5077297;28;20620;-56
2022/02/08 02:04:47;;;;;;;34.43;17.63;;;7.20;99.90;;;;;;5075301;28;20693;-57
2022/02/08 02:07:18;;;;;;;30.40;16.40;;;7.20;99.90;;;;;;5067973;28;20199;-57
2022/02/08 02:09:46;;;;;;;33.27;18.07;;;7.30;99.90;;;;;;5066797;28;20738;-56
2022/02/08 02:12:14;;;;;;;39.47;17.33;;;7.30;99.90;;;;;;5076856;28;20611;-58
2022/02/08 02:14:41;;;;;;;28.10;18.03;;;7.30;99.90;;;;;;5074839;28;20644;-56
2022/02/08 02:17:09;;;;;;;39.23;18.43;;;7.40;99.90;;;;;;5065190;28;20617;-55
2022/02/08 02:19:38;;;;;;;36.43;18.37;;;7.40;99.90;;;;;;5073535;28;20251;-55
2022/02/08 02:22:07;;;;;;;37.83;18.37;;;7.40;99.90;;;;;;5077706;28;20831;-55
2022/02/08 02:24:36;;;;;;;38.90;17.90;;;7.40;99.90;;;;;;5073726;28;20199;-58
2022/02/08 02:27:04;;;;;;;34.87;17.83;;;7.50;99.90;;;;;;5076020;28;20211;-56
2022/02/08 02:29:32;;;;;;;33.10;17.93;;;7.50;99.90;;;;;;5057404;28;20513;-56
2022/02/08 02:32:00;;;;;;;33.07;18.20;;;7.60;99.90;;;;;;5076748;28;20659;-56
2022/02/08 02:34:27;;;;;;;33.73;16.80;;;7.60;99.90;;;;;;5078953;28;20586;-56
2022/02/08 02:36:55;;;;;;;30.53;17.80;;;7.60;99.90;;;;;;5078597;28;20208;-57
2022/02/08 02:39:26;;;;;;;31.90;18.00;;;7.60;99.90;;;;;;5076461;28;20307;-57
2022/02/08 02:41:53;;;;;;;28.17;16.97;;;7.60;99.90;;;;;;5078353;28;20206;-57
2022/02/08 02:44:23;;;;;;;30.60;15.97;;;7.70;99.90;;;;;;5060874;28;20273;-56
2022/02/08 02:46:51;;;;;;;30.30;17.07;;;7.70;99.90;;;;;;5081464;28;20347;-57
2022/02/08 02:49:19;;;;;;;26.47;16.30;;;7.70;99.90;;;;;;5077501;28;20666;-57
2022/02/08 02:51:46;;;;;;;34.53;15.73;;;7.70;99.90;;;;;;5074686;28;20318;-56
2022/02/08 02:54:16;;;;;;;29.63;13.70;;;7.70;99.90;;;;;;5075477;28;20489;-56
2022/02/08 02:56:44;;;;;;;30.87;15.53;;;7.80;99.90;;;;;;5058461;28;20202;-57
2022/02/08 02:59:11;;;;;;;26.17;14.43;;;7.80;99.90;;;;;;5077235;28;20770;-57
2022/02/08 03:02:51;;;;;;;25.63;13.67;;;7.80;99.90;;;;;;5074462;28;20240;-56
2022/02/08 03:05:03;;;;;;;28.87;14.90;;;7.90;99.90;;;;;;5064828;28;20256;-57
2022/02/08 03:18:40;;;;;;;25.87;14.43;;;8.00;99.90;;;;;;5078792;28;20236;-55
2022/02/08 03:21:09;;;;;;;23.07;14.70;;;8.00;99.90;;;;;;5076291;28;20247;-57
2022/02/08 03:23:37;;;;;;;26.27;14.70;;;8.00;99.90;;;;;;5075758;28;20218;-57
2022/02/08 03:26:05;;;;;;;20.20;13.67;;;8.00;99.90;;;;;;5079026;28;20542;-57
2022/02/08 03:28:33;;;;;;;28.93;13.53;;;7.90;99.90;;;;;;5075182;28;20208;-57
2022/02/08 03:31:00;;;;;;;27.73;13.33;;;8.00;99.90;;;;;;5077614;28;20208;-57
2022/02/08 03:33:27;;;;;;;30.37;15.07;;;7.90;99.90;;;;;;5078754;28;20298;-56
2022/02/08 03:35:56;;;;;;;23.73;13.97;;;7.90;99.90;;;;;;5076288;28;20292;-57
2022/02/08 03:38:31;;;;;;;29.40;14.30;;;8.00;99.90;;;;;;5060972;28;20237;-55
2022/02/08 03:40:58;;;;;;;23.73;13.10;;;8.00;99.90;;;;;;5073665;28;20719;-56
2022/02/08 03:45:55;;;;;;;21.40;12.47;;;8.00;99.90;;;;;;5077320;28;20783;-57
2022/02/08 03:48:25;;;;;;;22.67;13.33;;;8.00;99.90;;;;;;5078951;28;20247;-56
2022/02/08 03:50:55;;;;;;;24.67;14.23;;;8.00;99.90;;;;;;5076486;28;20199;-57
2022/02/08 03:53:23;;;;;;;21.67;12.63;;;8.00;99.90;;;;;;5060781;28;20284;-56
2022/02/08 03:55:51;;;;;;;21.40;12.83;;;8.10;99.90;;;;;;5072589;28;20320;-56
2022/02/08 03:58:18;;;;;;;19.37;13.37;;;8.10;99.90;;;;;;5078297;28;20230;-55
2022/02/08 04:03:23;;;;;;;27.80;13.03;;;8.10;99.90;;;;;;5075020;28;20308;-56
2022/02/08 04:05:53;;;;;;;25.07;13.73;;;8.10;99.90;;;;;;5074579;28;20201;-55
2022/02/08 04:08:20;;;;;;;28.20;13.03;;;8.10;99.90;;;;;;5073510;28;20283;-55
2022/02/08 04:10:47;;;;;;;23.37;12.07;;;8.20;99.90;;;;;;5072767;28;20315;-55
2022/02/08 04:13:25;;;;;;;23.03;12.40;;;8.20;99.90;;;;;;5077473;28;20262;-56
2022/02/08 04:16:04;;;;;;;20.77;12.30;;;8.20;99.90;;;;;;5077157;28;20559;-56
2022/02/08 04:32:21;;;;;;;18.70;12.80;;;8.30;99.90;;;;;;5080274;28;20272;-56
2022/02/08 04:40:08;;;;;;;23.50;11.93;;;8.30;99.90;;;;;;5077039;28;20215;-55
2022/02/08 04:42:44;;;;;;;18.73;12.30;;;8.30;99.90;;;;;;5079078;28;20243;-58
2022/02/08 04:45:27;;;;;;;20.23;11.83;;;8.30;99.90;;;;;;5075718;28;20211;-56
2022/02/08 04:50:23;;;;;;;15.57;11.23;;;8.40;99.90;;;;;;5073561;28;20542;-55
2022/02/08 04:52:52;;;;;;;20.10;11.73;;;8.40;99.90;;;;;;5077142;28;20709;-55
2022/02/08 05:35:55;;;;;;;20.83;13.03;;;8.40;99.90;;;;;;5075699;28;20691;-57
2022/02/08 05:49:09;;;;;;;19.70;13.30;;;8.40;99.90;;;;;;5077597;28;20202;-57
2022/02/08 05:54:19;;;;;;;24.97;13.67;;;8.40;99.90;;;;;;5068489;28;20254;-56
2022/02/08 05:56:51;;;;;;;20.97;13.57;;;8.40;99.90;;;;;;5060776;28;20203;-56
2022/02/08 05:59:18;;;;;;;22.27;12.60;;;8.40;99.90;;;;;;5077570;28;20256;-57
2022/02/08 06:01:45;;;;;;;20.27;13.43;;;8.40;99.90;;;;;;5079017;28;20242;-57
2022/02/08 06:04:12;;;;;;;18.87;12.67;;;8.50;99.90;;;;;;5078732;28;20195;-58
2022/02/08 06:06:40;;;;;;;17.90;12.70;;;8.50;99.90;;;;;;5077959;28;20189;-58
2022/02/08 06:09:06;;;;;;;21.67;12.03;;;8.50;99.90;;;;;;5077685;28;20225;-59
2022/02/08 06:11:36;;;;;;;21.30;13.63;;;8.50;99.90;;;;;;5079703;28;20540;-58
2022/02/08 06:14:04;;;;;;;24.27;12.50;;;8.50;99.90;;;;;;5069262;28;20658;-57
2022/02/08 06:16:32;;;;;;;21.33;13.73;;;8.50;99.90;;;;;;5072663;28;20657;-59
2022/02/08 06:18:59;;;;;;;23.43;11.97;;;8.50;99.90;;;;;;5060919;28;20296;-57
2022/02/08 06:21:26;;;;;;;18.97;12.73;;;8.50;99.90;;;;;;5058015;28;20222;-57
2022/02/08 06:23:53;;;;;;;19.60;11.60;;;8.50;99.90;;;;;;5056662;28;20218;-56
2022/02/08 06:26:22;;;;;;;18.60;10.60;;;8.60;99.90;;;;;;5055677;28;20570;-57
2022/02/08 06:28:59;;;;;;;18.90;12.20;;;8.50;99.90;;;;;;5061103;28;20256;-57
2022/02/08 06:31:26;;;;;;;19.27;12.70;;;8.50;99.90;;;;;;5061815;28;20306;-57
2022/02/08 06:33:53;;;;;;;19.93;12.10;;;8.50;99.90;;;;;;5062851;28;20207;-57
2022/02/08 06:36:20;;;;;;;15.73;11.23;;;8.50;99.90;;;;;;5039239;28;20203;-57
2022/02/08 06:38:47;;;;;;;19.00;10.47;;;8.50;99.90;;;;;;5061749;28;20212;-59
2022/02/08 06:41:14;;;;;;;23.27;11.53;;;8.50;99.90;;;;;;5058131;28;20204;-57
2022/02/08 06:43:41;;;;;;;16.53;9.63;;;8.50;99.90;;;;;;5055567;28;20218;-61
2022/02/08 06:46:08;;;;;;;17.03;10.80;;;8.50;99.90;;;;;;5059841;28;20494;-58
2022/02/08 06:48:35;;;;;;;21.17;10.23;;;8.50;99.90;;;;;;5039210;28;20197;-57
2022/02/08 06:51:02;;;;;;;12.27;8.73;;;8.60;99.90;;;;;;5056908;28;20219;-58
2022/02/08 06:53:29;;;;;;;13.50;8.60;;;8.60;99.90;;;;;;5062679;28;20644;-59
2022/02/08 06:55:56;;;;;;;15.60;8.20;;;8.60;99.90;;;;;;5056518;28;20250;-58
2022/02/08 06:58:30;;;;;;;16.00;9.00;;;8.60;99.90;;;;;;5039305;28;20795;-58
2022/02/08 07:01:02;;;;;;;13.37;8.80;;;8.70;99.90;;;;;;5053914;28;20323;-58
2022/02/08 07:03:30;;;;;;;15.70;7.83;;;8.70;99.90;;;;;;5060402;28;20652;-59
2022/02/08 07:05:57;;;;;;;14.23;8.10;;;8.70;99.90;;;;;;5062381;28;20337;-57
2022/02/08 07:08:24;;;;;;;17.20;8.93;;;8.70;99.90;;;;;;5060514;28;20241;-59
2022/02/08 07:10:51;;;;;;;17.40;8.63;;;8.70;99.90;;;;;;5061375;28;20248;-59
2022/02/08 07:13:18;;;;;;;14.63;8.70;;;8.70;99.90;;;;;;5063322;28;20285;-57
2022/02/08 07:15:45;;;;;;;13.90;8.93;;;8.70;99.90;;;;;;5056219;28;20207;-57
2022/02/08 07:18:12;;;;;;;16.17;9.00;;;8.70;99.90;;;;;;5064595;28;20573;-58
2022/02/08 07:20:48;;;;;;;15.83;9.37;;;8.70;99.90;;;;;;5066869;28;20215;-58
2022/02/08 07:23:15;;;;;;;16.30;8.90;;;8.70;99.90;;;;;;5073595;28;20204;-58
2022/02/08 07:25:41;;;;;;;17.97;7.57;;;8.70;99.90;;;;;;5075041;28;20286;-57
2022/02/08 07:28:08;;;;;;;15.10;9.10;;;8.70;99.90;;;;;;5068277;28;20213;-57
2022/02/08 07:30:37;;;;;;;15.17;7.53;;;8.70;99.90;;;;;;5060236;28;20213;-57
2022/02/08 07:33:04;;;;;;;12.87;8.10;;;8.70;99.90;;;;;;5072011;28;20203;-58
2022/02/08 07:38:37;;;;;;;14.10;7.77;;;8.70;99.90;;;;;;4960671;28;20802;-58
2022/02/08 07:43:32;;;;;;;15.70;7.10;;;8.70;99.90;;;;;;4958854;28;20306;-58
2022/02/08 07:45:59;;;;;;;14.23;6.70;;;8.70;99.90;;;;;;4958223;28;20749;-57
2022/02/08 07:48:27;;;;;;;13.07;5.93;;;8.80;99.90;;;;;;4958179;28;20773;-62
2022/02/08 07:50:55;;;;;;;8.50;5.27;;;8.80;99.90;;;;;;4957689;28;20889;-62
2022/02/08 07:53:26;;;;;;;9.57;4.83;;;8.80;99.90;;;;;;4976936;28;20210;-62
2022/02/08 07:55:55;;;;;;;11.63;4.00;;;8.90;99.90;;;;;;4958321;28;20296;-59
2022/02/08 07:58:22;;;;;;;8.73;4.30;;;9.00;99.90;;;;;;4974763;28;20749;-62
2022/02/08 08:00:49;;;;;;;8.13;3.67;;;9.00;99.90;;;;;;4958605;28;20782;-62
2022/02/08 08:03:16;;;;;;;8.90;3.97;;;9.00;99.90;;;;;;4960009;28;20216;-61
2022/02/08 08:05:43;;;;;;;9.57;3.57;;;9.10;99.90;;;;;;4958625;28;20218;-61
2022/02/08 08:08:11;;;;;;;6.67;2.93;;;9.00;99.90;;;;;;4963826;28;20353;-61
2022/02/08 08:10:43;;;;;;;8.47;2.70;;;9.10;99.90;;;;;;4963928;28;20289;-62
2022/02/08 08:13:12;;;;;;;8.67;2.53;;;9.10;99.90;;;;;;5055211;28;20242;-61
2022/02/08 08:15:45;;;;;;;7.20;2.27;;;9.20;99.90;;;;;;5075563;28;20207;-61
2022/02/08 08:20:42;;;;;;;9.60;1.77;;;9.30;99.90;;;;;;5082179;28;20219;-62
2022/02/08 08:23:09;;;;;;;5.10;1.80;;;9.40;99.90;;;;;;5080884;28;20284;-60
2022/02/08 08:25:36;;;;;;;6.40;1.90;;;9.40;99.90;;;;;;5079413;28;20254;-63
2022/02/08 08:28:04;;;;;;;5.90;1.50;;;9.40;99.90;;;;;;5082563;28;20236;-64
2022/02/08 08:30:31;;;;;;;6.07;1.53;;;9.50;99.90;;;;;;5076316;28;20819;-62
2022/02/08 08:32:57;;;;;;;6.33;1.77;;;9.50;99.90;;;;;;5081337;28;20768;-58
2022/02/08 08:35:24;;;;;;;5.93;1.67;;;9.60;99.90;;;;;;5075161;28;20296;-59
2022/02/08 08:37:53;;;;;;;9.90;1.20;;;9.60;99.90;;;;;;5075903;28;20239;-63
2022/02/08 08:40:38;;;;;;;4.40;1.00;;;9.70;99.90;;;;;;5053810;28;20642;-63
2022/02/08 08:49:00;;;;;;;3.30;1.00;;;9.80;99.90;;;;;;5075446;28;20543;-62
2022/02/08 08:51:39;;;;;;;3.47;1.17;;;9.80;99.90;;;;;;5076334;28;20297;-62
2022/02/08 08:54:07;;;;;;;6.40;1.10;;;9.80;99.90;;;;;;5072624;28;20222;-62
2022/02/08 08:56:39;;;;;;;5.80;1.90;;;9.80;99.90;;;;;;5074333;28;20332;-62
2022/02/08 08:59:08;;;;;;;4.63;1.10;;;9.90;99.90;;;;;;5071725;28;20254;-62
2022/02/08 09:01:35;;;;;;;8.10;1.40;;;9.90;99.90;;;;;;5078410;28;20936;-62
2022/02/08 09:04:03;;;;;;;8.87;1.70;;;9.90;99.90;;;;;;5076384;28;20233;-62
2022/02/08 09:06:33;;;;;;;4.10;1.10;;;10.00;99.90;;;;;;5076229;28;20254;-60
2022/02/08 09:09:01;;;;;;;8.03;1.80;;;9.90;99.90;;;;;;5071949;28;20701;-62
2022/02/08 09:11:50;;;;;;;3.70;1.30;;;9.90;99.90;;;;;;5073246;28;20202;-61
2022/02/08 09:14:15;;;;;;;5.93;1.03;;;10.00;99.90;;;;;;5076413;28;20885;-62
2022/02/08 09:30:00;;;;;;;3.00;1.20;;;10.20;99.90;;;;;;5074012;28;20392;-62
2022/02/08 09:35:14;;;;;;;6.87;1.67;;;10.20;99.90;;;;;;5078186;28;20615;-62
2022/02/08 09:37:43;;;;;;;6.40;1.50;;;10.20;99.90;;;;;;5080368;28;20206;-62
2022/02/08 09:40:11;;;;;;;3.43;1.30;;;10.30;99.90;;;;;;5067341;28;20248;-61
2022/02/08 09:42:41;;;;;;;7.53;1.40;;;10.30;99.90;;;;;;5080621;28;20804;-61
2022/02/08 09:45:17;;;;;;;4.43;1.30;;;10.30;99.90;;;;;;5069436;28;20673;-61
2022/02/08 09:48:02;;;;;;;2.63;1.37;;;10.30;99.90;;;;;;5084463;28;20205;-61
2022/02/08 09:50:32;;;;;;;6.17;1.63;;;10.40;99.90;;;;;;5065839;28;20273;-62
2022/02/08 09:53:02;;;;;;;8.07;1.53;;;10.50;99.90;;;;;;5080193;28;20791;-61
2022/02/08 09:55:37;;;;;;;6.43;1.73;;;10.50;99.90;;;;;;5080108;28;20197;-61
2022/02/08 09:58:05;;;;;;;6.50;1.57;;;10.50;99.90;;;;;;5079409;28;20209;-61
2022/02/08 10:00:34;;;;;;;7.47;1.63;;;10.60;99.90;;;;;;5078710;28;21056;-61
2022/02/08 10:03:09;;;;;;;5.97;1.80;;;10.60;99.90;;;;;;5061112;28;20226;-61
2022/02/08 10:05:53;;;;;;;3.87;1.47;;;10.60;99.90;;;;;;5080454;28;20231;-65
2022/02/08 10:08:21;;;;;;;9.27;1.53;;;10.70;99.90;;;;;;5078398;28;20212;-61
2022/02/08 10:10:48;;;;;;;2.03;0.93;;;10.70;99.90;;;;;;5080323;28;20233;-62
2022/02/08 10:13:31;;;;;;;5.00;1.30;;;10.80;99.90;;;;;;5066352;28;20294;-61
2022/02/08 10:19:09;;;;;;;3.63;1.27;;;10.90;99.90;;;;;;5080148;28;20238;-62
2022/02/08 10:21:48;;;;;;;4.73;1.47;;;11.00;99.90;;;;;;5077206;28;20299;-62
2022/02/08 10:24:17;;;;;;;1.50;0.90;;;11.00;99.90;;;;;;5081200;28;20202;-61
2022/02/08 10:37:50;;;;;;;2.73;0.87;;;11.40;99.90;;;;;;5081028;28;20206;-61
2022/02/08 10:40:19;;;;;;;4.67;1.33;;;11.30;99.90;;;;;;5064621;28;20311;-61
2022/02/08 10:43:11;;;;;;;8.40;1.40;;;11.30;99.90;;;;;;5079491;28;20218;-61
2022/02/08 10:45:40;;;;;;;4.03;0.90;;;11.20;99.90;;;;;;5077157;28;20202;-62
2022/02/08 10:48:12;;;;;;;4.97;0.80;;;11.20;99.90;;;;;;5081182;28;20206;-61
2022/02/08 10:50:43;;;;;;;4.57;1.67;;;11.20;99.90;;;;;;5081232;28;20241;-61
2022/02/08 10:53:12;;;;;;;3.87;1.10;;;11.20;99.90;;;;;;5080873;28;20260;-61
2022/02/08 11:03:25;;;;;;;3.93;1.13;;;11.30;99.90;;;;;;5078088;28;20972;-62
2022/02/08 11:14:10;;;;;;;3.37;1.30;;;11.30;99.90;;;;;;5077624;28;20667;-61
2022/02/08 11:17:06;;;;;;;5.20;1.23;;;11.30;99.90;;;;;;5080333;28;20207;-61
2022/02/08 11:25:32;;;;;;;4.73;1.17;;;11.30;99.90;;;;;;5059110;28;20297;-61
2022/02/08 11:28:17;;;;;;;2.80;1.30;;;11.30;99.90;;;;;;5073134;28;20199;-61
2022/02/08 11:31:01;;;;;;;2.80;0.80;;;11.40;99.90;;;;;;5056352;28;20286;-60
2022/02/08 11:39:09;;;;;;;4.73;1.20;;;11.40;99.90;;;;;;5085266;28;20666;-61
2022/02/08 11:58:11;;;;;;;8.10;1.47;;;11.60;99.90;;;;;;5083136;28;20234;-61
2022/02/08 12:00:44;;;;;;;3.73;1.10;;;11.70;99.90;;;;;;5081888;28;20208;-62
2022/02/08 12:08:31;;;;;;;4.33;0.90;;;11.70;99.90;;;;;;5077364;28;20198;-61
2022/02/08 12:11:39;;;;;;;6.07;1.10;;;11.70;99.90;;;;;;5062355;28;20206;-61
2022/02/08 12:29:23;;;;;;;4.77;1.10;;;11.90;99.90;;;;;;5076008;28;20201;-55
2022/02/08 12:31:29;;;;;;;4.47;1.10;;;12.10;99.90;;;;;;5069963;28;20207;-56
2022/02/08 13:25:00;;;;;;;4.33;0.80;;;11.80;99.90;;;;;;5083461;28;20231;-58
2022/02/08 14:01:30;;;;;;;5.40;1.20;;;11.90;99.90;;;;;;5080213;28;20301;-56
2022/02/08 14:06:00;;;;;;;2.77;0.97;;;11.80;99.90;;;;;;5077794;28;20272;-56
2022/02/08 14:08:36;;;;;;;2.47;0.80;;;11.80;99.90;;;;;;5080175;28;20338;-57
2022/02/08 14:14:06;;;;;;;3.03;1.30;;;11.70;99.90;;;;;;5051770;28;20603;-56
2022/02/08 14:16:45;;;;;;;2.20;1.03;;;11.70;99.90;;;;;;5079594;28;20194;-57
2022/02/08 14:22:10;;;;;;;3.07;0.80;;;11.80;99.90;;;;;;5077680;28;20194;-57
2022/02/08 14:30:09;;;;;;;1.83;1.10;;;11.80;99.90;;;;;;5081985;28;20955;-57
2022/02/08 14:32:53;;;;;;;4.50;1.30;;;11.70;99.90;;;;;;5064698;28;20210;-57
2022/02/08 14:35:50;;;;;;;3.17;0.70;;;11.80;99.90;;;;;;5080499;28;20585;-56
2022/02/08 15:05:42;;;;;;;4.27;0.90;;;11.70;99.90;;;;;;5076245;28;20206;-57
2022/02/08 15:08:16;;;;;;;2.20;0.90;;;11.70;99.90;;;;;;5075951;28;21361;-56
2022/02/08 15:10:51;;;;;;;8.30;1.30;;;11.70;99.90;;;;;;5077470;28;20282;-57
2022/02/08 15:13:22;;;;;;;4.77;1.00;;;11.70;99.90;;;;;;5076961;28;20759;-57
2022/02/08 15:16:26;;;;;;;3.37;0.83;;;11.70;99.90;;;;;;5078738;28;20199;-55
2022/02/08 15:18:55;;;;;;;3.70;1.10;;;11.70;99.90;;;;;;5076471;28;20485;-55
2022/02/08 15:21:31;;;;;;;3.20;1.00;;;11.70;99.90;;;;;;5076517;28;20311;-56
2022/02/08 15:24:00;;;;;;;3.17;0.97;;;11.60;99.90;;;;;;5059412;28;22193;-56
2022/02/08 15:26:28;;;;;;;4.53;1.17;;;11.60;99.90;;;;;;5057040;28;20309;-56
2022/02/08 15:29:01;;;;;;;5.30;1.40;;;11.50;99.90;;;;;;5080093;28;20661;-59
2022/02/08 15:31:27;;;;;;;4.00;1.70;;;11.50;99.90;;;;;;5083670;28;20386;-59
2022/02/08 15:33:56;;;;;;;5.03;1.73;;;11.50;99.90;;;;;;5081931;28;20599;-59
2022/02/08 15:36:23;;;;;;;3.77;1.30;;;11.50;99.90;;;;;;5066398;28;20210;-61
2022/02/08 15:38:54;;;;;;;6.40;2.13;;;11.50;99.90;;;;;;5079528;28;20293;-60
2022/02/08 15:41:21;;;;;;;4.07;1.73;;;11.40;99.90;;;;;;5080306;28;20697;-60
2022/02/08 15:43:49;;;;;;;6.53;1.70;;;11.40;99.90;;;;;;5081916;28;20222;-59
2022/02/08 15:46:21;;;;;;;4.90;1.57;;;11.40;99.90;;;;;;5061452;28;20926;-60
2022/02/08 15:48:50;;;;;;;8.20;1.90;;;11.40;99.90;;;;;;5081043;28;20230;-58
2022/02/08 15:53:52;;;;;;;3.17;1.77;;;11.40;99.90;;;;;;5079994;28;20234;-58
2022/02/08 16:17:20;;;;;;;5.67;2.17;;;11.40;99.90;;;;;;5080133;28;20209;-61
2022/02/08 16:20:01;;;;;;;5.90;1.73;;;11.40;99.90;;;;;;5068631;28;20366;-60
2022/02/08 16:22:56;;;;;;;6.20;2.60;;;11.30;99.90;;;;;;5060390;28;20198;-60
2022/02/08 16:46:10;;;;;;;5.00;1.90;;;11.30;99.90;;;;;;5067654;28;20933;-59
2022/02/08 16:50:28;;;;;;;3.57;1.63;;;11.20;99.90;;;;;;5086866;28;20603;-57
2022/02/08 16:55:42;;;;;;;9.70;1.63;;;11.30;99.90;;;;;;5089552;28;20260;-59
2022/02/08 17:00:42;;;;;;;6.07;1.73;;;11.20;99.90;;;;;;5086266;28;20257;-59
2022/02/08 17:03:14;;;;;;;4.33;1.47;;;11.20;99.90;;;;;;5076122;28;20217;-59
2022/02/08 17:05:41;;;;;;;5.13;1.77;;;11.20;99.90;;;;;;5082839;28;20593;-58
2022/02/08 17:08:12;;;;;;;5.23;2.00;;;11.20;99.90;;;;;;5084469;28;20202;-58
2022/02/08 17:10:43;;;;;;;6.47;1.47;;;11.10;99.90;;;;;;5083027;28;20565;-58
2022/02/08 17:16:07;;;;;;;2.40;1.70;;;11.10;99.90;;;;;;5080102;28;20299;-59
2022/02/08 17:48:13;;;;;;;4.83;3.00;;;10.90;99.90;;;;;;5075936;28;20286;-60
2022/02/08 17:50:40;;;;;;;6.30;3.00;;;10.80;99.90;;;;;;5057938;28;20205;-58
2022/02/08 17:53:06;;;;;;;3.53;2.73;;;10.90;99.90;;;;;;5079723;28;20254;-60
2022/02/08 17:55:33;;;;;;;4.80;2.90;;;10.80;99.90;;;;;;5080923;28;20240;-61
2022/02/08 17:58:00;;;;;;;5.23;2.57;;;10.90;99.90;;;;;;5079987;28;20199;-60
2022/02/08 18:00:32;;;;;;;5.00;2.83;;;10.80;99.90;;;;;;5052725;28;20697;-59
2022/02/08 18:03:02;;;;;;;5.37;2.77;;;10.70;99.90;;;;;;5077510;28;20317;-61
2022/02/08 18:05:29;;;;;;;6.17;3.00;;;10.70;99.90;;;;;;5080835;28;20203;-61
2022/02/08 18:07:57;;;;;;;4.40;3.00;;;10.80;99.90;;;;;;5078705;28;20257;-56
2022/02/08 18:10:30;;;;;;;7.27;3.03;;;10.70;99.90;;;;;;5077975;28;20693;-56
2022/02/08 18:12:58;;;;;;;4.87;3.07;;;10.70;99.90;;;;;;5078894;28;20238;-58
2022/02/08 18:15:27;;;;;;;5.90;3.17;;;10.60;99.90;;;;;;5071153;28;20235;-57
2022/02/08 18:17:58;;;;;;;3.97;3.23;;;10.60;99.90;;;;;;5076122;28;20713;-59
2022/02/08 18:20:34;;;;;;;5.10;3.23;;;10.60;99.90;;;;;;5058339;28;20364;-57
2022/02/08 18:23:38;;;;;;;6.13;3.37;;;10.60;99.90;;;;;;5057515;28;20330;-57
2022/02/08 19:09:53;;;;;;;6.43;3.80;;;10.30;99.90;;;;;;5052093;28;20300;-56
2022/02/08 19:12:29;;;;;;;6.57;3.87;;;10.30;99.90;;;;;;5055134;28;20206;-55
2022/02/08 19:18:18;;;;;;;8.00;3.67;;;10.20;99.90;;;;;;5035086;28;20309;-58
2022/02/08 19:21:10;;;;;;;6.33;3.73;;;10.30;99.90;;;;;;5053981;28;20234;-57
2022/02/08 19:23:35;;;;;;;7.03;3.23;;;10.20;99.90;;;;;;5056951;28;20249;-58
2022/02/08 19:26:04;;;;;;;5.67;4.03;;;10.20;99.90;;;;;;5057019;28;20273;-57
2022/02/08 19:28:32;;;;;;;7.67;3.63;;;10.20;99.90;;;;;;5053773;28;20206;-59
2022/02/08 19:30:59;;;;;;;5.50;3.80;;;10.20;99.90;;;;;;5055086;28;20263;-61
2022/02/08 19:33:26;;;;;;;4.53;3.60;;;10.20;99.90;;;;;;5057997;28;20329;-60
2022/02/08 19:35:53;;;;;;;8.03;3.90;;;10.20;99.90;;;;;;5060968;28;20256;-58
2022/02/08 19:38:25;;;;;;;6.23;4.20;;;10.20;99.90;;;;;;5038215;28;20224;-57
2022/02/08 19:40:53;;;;;;;7.70;4.20;;;10.10;99.90;;;;;;5053081;28;20678;-58
2022/02/08 19:43:20;;;;;;;4.87;4.37;;;10.20;99.90;;;;;;5058363;28;20209;-60
2022/02/08 19:45:47;;;;;;;8.93;4.43;;;10.20;99.90;;;;;;5053810;28;20299;-59
2022/02/08 19:48:15;;;;;;;8.63;4.70;;;10.20;99.90;;;;;;5056636;28;20205;-60
2022/02/08 19:50:49;;;;;;;5.53;3.73;;;10.20;99.90;;;;;;5035625;28;20261;-58
2022/02/08 19:53:16;;;;;;;7.10;4.67;;;10.10;99.90;;;;;;5058300;28;20293;-58
2022/02/08 19:58:23;;;;;;;7.07;4.80;;;10.10;99.90;;;;;;5056561;28;20706;-59
2022/02/08 20:00:59;;;;;;;7.27;5.10;;;10.10;99.90;;;;;;5053622;28;20214;-58
2022/02/08 20:03:33;;;;;;;7.43;4.40;;;10.10;99.90;;;;;;5041430;28;20206;-59
2022/02/08 20:05:59;;;;;;;7.97;5.53;;;10.10;99.90;;;;;;5034193;28;20719;-61
2022/02/08 20:08:27;;;;;;;7.67;4.87;;;10.10;99.90;;;;;;5033669;28;20317;-58
2022/02/08 20:10:55;;;;;;;10.07;5.07;;;10.10;99.90;;;;;;5042046;28;20285;-58
2022/02/08 20:13:27;;;;;;;8.60;4.73;;;10.10;99.90;;;;;;5062910;28;20288;-59
2022/02/08 20:15:57;;;;;;;12.70;5.40;;;10.10;99.90;;;;;;5056291;28;20213;-60
2022/02/08 20:18:25;;;;;;;7.87;4.57;;;10.10;99.90;;;;;;5045512;28;20317;-59
2022/02/08 20:20:52;;;;;;;8.00;4.53;;;10.10;99.90;;;;;;5056199;28;20246;-60
2022/02/08 20:23:21;;;;;;;8.50;4.53;;;10.00;99.90;;;;;;5058246;28;20237;-60
2022/02/08 20:25:54;;;;;;;7.67;4.90;;;10.00;99.90;;;;;;5070793;28;20292;-60
2022/02/08 20:28:36;;;;;;;10.73;4.73;;;10.00;99.90;;;;;;5075204;28;20210;-61
2022/02/08 20:31:04;;;;;;;7.27;5.17;;;10.00;99.90;;;;;;5075068;28;20610;-59
2022/02/08 20:33:31;;;;;;;9.37;4.70;;;10.00;99.90;;;;;;5079627;28;20673;-60
2022/02/08 20:35:58;;;;;;;7.73;4.60;;;10.00;99.90;;;;;;5069021;28;20203;-58
2022/02/08 20:38:26;;;;;;;7.73;4.87;;;10.00;99.90;;;;;;5053289;28;20292;-61
2022/02/08 20:40:55;;;;;;;6.77;4.17;;;10.00;99.90;;;;;;5052041;28;20271;-61
2022/02/08 20:43:22;;;;;;;7.43;4.30;;;10.00;99.90;;;;;;5061090;28;20443;-61
2022/02/08 20:45:49;;;;;;;4.60;3.83;;;10.00;99.90;;;;;;5057657;28;20320;-59
2022/02/08 20:48:18;;;;;;;7.87;4.37;;;10.00;99.90;;;;;;5080720;28;20554;-58
2022/02/08 20:50:46;;;;;;;5.43;3.73;;;10.00;99.90;;;;;;5075984;28;20233;-59